createdAt,value
2023-01-18T00:01:20.551Z,2.80
2023-01-18T00:03:47.616Z,2.80
2023-01-18T00:06:14.578Z,2.80
2023-01-18T00:08:42.607Z,2.70
2023-01-18T00:11:10.752Z,2.70
2023-01-18T00:13:37.981Z,2.70
2023-01-18T00:16:05.974Z,2.80
2023-01-18T00:18:35.951Z,2.80
2023-01-18T00:21:03.712Z,2.80
2023-01-18T00:23:30.619Z,2.80
2023-01-18T00:26:04.621Z,2.90
2023-01-18T00:28:31.866Z,2.80
2023-01-18T00:30:58.732Z,2.80
2023-01-18T00:33:25.648Z,2.70
2023-01-18T00:36:00.991Z,2.80
2023-01-18T00:38:28.719Z,2.80
2023-01-18T00:40:55.849Z,2.70
2023-01-18T00:43:41.150Z,2.70
2023-01-18T00:46:18.469Z,2.70
2023-01-18T00:48:45.319Z,2.60
2023-01-18T00:51:14.651Z,2.70
2023-01-18T00:53:44.247Z,2.70
2023-01-18T00:56:12.173Z,2.70
2023-01-18T00:58:39.074Z,2.70
2023-01-18T01:01:06.387Z,2.70
2023-01-18T01:03:53.489Z,2.70
2023-01-18T01:06:44.873Z,2.70
2023-01-18T01:09:14.986Z,2.70
2023-01-18T01:12:01.958Z,2.60
2023-01-18T01:14:47.531Z,2.70
2023-01-18T01:17:33.045Z,2.60
2023-01-18T01:20:18.574Z,2.60
2023-01-18T01:23:03.869Z,2.70
2023-01-18T01:25:49.442Z,2.70
2023-01-18T01:28:16.328Z,2.70
2023-01-18T01:30:44.662Z,2.70
2023-01-18T01:33:11.801Z,2.80
2023-01-18T01:35:38.649Z,2.80
2023-01-18T01:38:05.582Z,2.90
2023-01-18T01:40:32.486Z,2.80
2023-01-18T01:42:59.670Z,2.80
2023-01-18T01:45:29.310Z,2.80
2023-01-18T01:47:57.379Z,2.70
2023-01-18T01:50:35.840Z,2.70
2023-01-18T01:53:03.575Z,2.70
2023-01-18T01:55:32.643Z,2.70
2023-01-18T01:58:02.377Z,2.70
2023-01-18T02:00:29.554Z,2.70
2023-01-18T02:02:59.281Z,2.70
2023-01-18T02:05:27.255Z,2.70
2023-01-18T02:07:54.394Z,2.70
2023-01-18T02:10:21.893Z,2.70
2023-01-18T02:12:51.242Z,2.70
2023-01-18T02:15:20.022Z,2.70
2023-01-18T02:17:54.082Z,2.80
2023-01-18T02:20:27.219Z,2.90
2023-01-18T02:23:12.988Z,2.90
2023-01-18T02:25:42.565Z,2.90
2023-01-18T02:28:09.471Z,2.90
2023-01-18T02:30:43.418Z,2.90
2023-01-18T02:33:29.518Z,2.80
2023-01-18T02:36:00.456Z,2.80
2023-01-18T02:38:39.311Z,2.80
2023-01-18T02:41:49.316Z,2.90
2023-01-18T02:44:36.846Z,2.90
2023-01-18T02:47:16.813Z,2.90
2023-01-18T02:49:46.198Z,2.90
2023-01-18T02:52:34.593Z,2.80
2023-01-18T02:55:04.403Z,2.80
2023-01-18T02:57:35.499Z,2.80
2023-01-18T03:00:07.620Z,2.80
2023-01-18T03:02:42.071Z,2.80
2023-01-18T03:05:18.839Z,2.80
2023-01-18T03:07:53.503Z,2.80
2023-01-18T03:10:25.005Z,2.90
2023-01-18T03:13:28.387Z,2.90
2023-01-18T03:16:10.230Z,2.60
2023-01-18T03:19:03.236Z,2.60
2023-01-18T03:21:46.222Z,2.60
2023-01-18T03:24:19.513Z,2.60
2023-01-18T03:26:49.306Z,2.60
2023-01-18T03:29:45.185Z,2.60
2023-01-18T03:32:38.011Z,2.60
2023-01-18T03:35:13.441Z,2.60
2023-01-18T03:40:33.880Z,2.70
2023-01-18T03:43:08.732Z,2.70
2023-01-18T03:45:41.965Z,2.70
2023-01-18T03:48:09.549Z,2.70
2023-01-18T03:50:44.137Z,2.60
2023-01-18T03:53:13.324Z,2.60
2023-01-18T03:55:44.674Z,2.60
2023-01-18T03:58:12.319Z,2.60
2023-01-18T04:00:39.970Z,2.60
2023-01-18T04:03:07.300Z,2.60
2023-01-18T04:05:35.083Z,2.50
2023-01-18T04:08:02.035Z,2.60
2023-01-18T04:10:28.882Z,2.60
2023-01-18T04:12:55.960Z,2.60
2023-01-18T04:15:23.274Z,2.60
2023-01-18T04:17:53.320Z,2.50
2023-01-18T04:20:20.224Z,2.60
2023-01-18T04:22:56.589Z,2.60
2023-01-18T04:25:23.654Z,2.60
2023-01-18T04:27:50.524Z,2.70
2023-01-18T04:30:17.466Z,2.70
2023-01-18T04:32:46.328Z,2.70
2023-01-18T04:35:13.906Z,2.70
2023-01-18T04:37:43.976Z,2.70
2023-01-18T04:40:11.425Z,2.80
2023-01-18T04:42:38.346Z,2.70
2023-01-18T04:45:05.483Z,2.70
2023-01-18T04:47:32.332Z,2.60
2023-01-18T04:49:59.189Z,2.60
2023-01-18T04:52:26.989Z,2.60
2023-01-18T04:54:54.066Z,2.60
2023-01-18T04:57:25.461Z,2.70
2023-01-18T04:59:52.647Z,2.60
2023-01-18T05:02:22.244Z,2.60
2023-01-18T05:04:49.163Z,2.60
2023-01-18T05:07:16.030Z,2.60
2023-01-18T05:09:42.823Z,2.50
2023-01-18T05:12:09.693Z,2.60
2023-01-18T05:14:36.520Z,2.50
2023-01-18T05:17:03.374Z,2.50
2023-01-18T05:19:30.215Z,2.40
2023-01-18T05:21:57.142Z,2.40
2023-01-18T05:24:24.102Z,2.50
2023-01-18T05:26:50.985Z,2.40
2023-01-18T05:29:18.090Z,2.50
2023-01-18T05:31:45.068Z,2.50
2023-01-18T05:34:12.032Z,2.60
2023-01-18T05:36:38.922Z,2.60
2023-01-18T05:39:05.938Z,2.60
2023-01-18T05:41:32.762Z,2.50
2023-01-18T05:43:59.611Z,2.60
2023-01-18T05:46:26.467Z,2.60
2023-01-18T05:48:56.166Z,2.50
2023-01-18T05:51:22.996Z,2.60
2023-01-18T05:53:50.137Z,2.60
2023-01-18T05:56:17.177Z,2.50
2023-01-18T05:58:44.033Z,2.50
2023-01-18T06:01:10.924Z,2.50
2023-01-18T06:03:37.829Z,2.50
2023-01-18T06:06:04.966Z,2.50
2023-01-18T06:08:32.004Z,2.50
2023-01-18T06:10:59.480Z,2.50
2023-01-18T06:13:29.827Z,2.50
2023-01-18T06:15:58.239Z,2.60
2023-01-18T06:18:25.975Z,2.60
2023-01-18T06:20:54.227Z,2.60
2023-01-18T06:23:21.666Z,2.60
2023-01-18T06:25:48.573Z,2.60
2023-01-18T06:28:15.475Z,2.70
2023-01-18T06:30:44.995Z,2.60
2023-01-18T06:33:11.882Z,2.60
2023-01-18T06:35:39.028Z,2.60
2023-01-18T06:38:08.077Z,2.70
2023-01-18T06:40:35.192Z,2.70
2023-01-18T06:43:05.153Z,2.70
2023-01-18T06:45:40.053Z,2.70
2023-01-18T06:48:15.814Z,2.70
2023-01-18T06:50:45.178Z,2.70
2023-01-18T06:53:15.532Z,2.70
2023-01-18T06:55:45.001Z,2.70
2023-01-18T06:58:12.174Z,2.70
2023-01-18T07:00:45.368Z,2.70
2023-01-18T07:03:22.487Z,2.70
2023-01-18T07:05:49.779Z,2.70
2023-01-18T07:08:24.018Z,2.70
2023-01-18T07:10:55.189Z,2.70
2023-01-18T07:13:25.999Z,2.70
2023-01-18T07:16:02.379Z,2.70
2023-01-18T07:18:33.348Z,2.70
2023-01-18T07:21:09.153Z,2.80
2023-01-18T07:23:37.557Z,2.80
2023-01-18T07:26:06.105Z,2.70
2023-01-18T07:28:39.658Z,2.80
2023-01-18T07:31:12.813Z,2.90
2023-01-18T07:33:40.007Z,2.80
2023-01-18T07:36:17.055Z,2.80
2023-01-18T07:38:49.738Z,2.80
2023-01-18T07:41:17.297Z,2.80
2023-01-18T07:43:49.080Z,2.90
2023-01-18T07:46:18.686Z,2.90
2023-01-18T07:48:50.512Z,2.90
2023-01-18T07:51:20.427Z,2.90
2023-01-18T07:53:49.959Z,2.90
2023-01-18T07:56:19.924Z,3.00
2023-01-18T07:58:50.207Z,3.00
2023-01-18T08:01:18.629Z,3.10
2023-01-18T08:03:56.721Z,3.20
2023-01-18T08:06:34.895Z,3.30
2023-01-18T08:09:04.653Z,3.40
2023-01-18T08:11:32.622Z,3.30
2023-01-18T08:13:59.484Z,3.30
2023-01-18T08:16:27.000Z,3.30
2023-01-18T08:18:53.900Z,3.30
2023-01-18T08:21:24.000Z,3.40
2023-01-18T08:24:06.608Z,3.30
2023-01-18T08:26:45.147Z,3.30
2023-01-18T08:29:20.219Z,3.30
2023-01-18T08:32:05.905Z,3.30
2023-01-18T08:34:42.739Z,3.20
2023-01-18T08:37:17.391Z,3.20
2023-01-18T08:39:44.617Z,3.20
2023-01-18T08:42:26.228Z,3.30
2023-01-18T08:45:01.459Z,3.30
2023-01-18T08:47:31.610Z,3.40
2023-01-18T08:50:03.101Z,3.40
2023-01-18T08:52:30.863Z,3.40
2023-01-18T08:55:06.045Z,3.40
2023-01-18T08:57:35.816Z,3.40
2023-01-18T09:00:07.431Z,3.40
2023-01-18T09:03:04.485Z,3.40
2023-01-18T09:05:44.683Z,3.40
2023-01-18T09:08:18.959Z,3.40
2023-01-18T09:10:57.660Z,3.40
2023-01-18T09:13:59.807Z,3.30
2023-01-18T09:16:28.387Z,3.30
2023-01-18T09:19:01.233Z,3.30
2023-01-18T09:21:33.836Z,3.40
2023-01-18T09:24:03.584Z,3.50
2023-01-18T09:26:37.908Z,3.50
2023-01-18T09:29:07.572Z,3.60
2023-01-18T09:32:08.449Z,3.60
2023-01-18T09:34:38.678Z,3.50
2023-01-18T09:37:17.617Z,3.40
2023-01-18T09:39:51.870Z,3.40
2023-01-18T09:42:23.869Z,3.40
2023-01-18T09:44:59.979Z,3.50
2023-01-18T09:47:28.779Z,3.50
2023-01-18T09:49:59.663Z,3.50
2023-01-18T09:52:32.674Z,3.50
2023-01-18T09:55:02.680Z,3.60
2023-01-18T09:57:37.960Z,3.60
2023-01-18T10:00:15.759Z,3.60
2023-01-18T10:02:44.525Z,3.60
2023-01-18T10:05:13.685Z,3.70
2023-01-18T10:08:02.367Z,3.70
2023-01-18T10:10:40.054Z,3.70
2023-01-18T10:13:28.249Z,3.60
2023-01-18T10:15:55.269Z,3.70
2023-01-18T10:18:22.214Z,3.70
2023-01-18T10:20:56.472Z,3.80
2023-01-18T10:23:30.228Z,3.90
2023-01-18T10:26:09.286Z,3.90
2023-01-18T10:28:53.477Z,3.90
2023-01-18T10:31:31.995Z,3.80
2023-01-18T10:34:00.374Z,3.80
2023-01-18T10:36:36.077Z,3.90
2023-01-18T10:39:05.829Z,4.00
2023-01-18T10:41:35.203Z,4.00
2023-01-18T10:44:02.240Z,4.00
2023-01-18T10:46:29.252Z,4.00
2023-01-18T10:48:59.323Z,3.90
2023-01-18T10:51:32.482Z,3.90
2023-01-18T10:53:59.516Z,4.00
2023-01-18T10:56:27.136Z,4.10
2023-01-18T10:58:58.256Z,4.20
2023-01-18T11:01:36.282Z,4.40
2023-01-18T11:04:07.572Z,5.10
2023-01-18T11:06:50.900Z,6.00
2023-01-18T11:09:36.388Z,5.80
2023-01-18T11:12:36.715Z,5.50
2023-01-18T11:15:15.839Z,5.50
2023-01-18T11:17:50.265Z,5.50
2023-01-18T11:20:20.068Z,7.70
2023-01-18T11:22:57.114Z,11.10
2023-01-18T11:25:25.994Z,13.00
2023-01-18T11:27:53.078Z,14.10
2023-01-18T11:30:21.463Z,14.60
2023-01-18T11:32:48.659Z,15.20
2023-01-18T11:35:22.751Z,15.20
2023-01-18T11:37:50.032Z,14.10
2023-01-18T11:40:16.857Z,13.00
2023-01-18T11:42:44.290Z,11.60
2023-01-18T11:45:15.917Z,10.00
2023-01-18T11:47:45.956Z,9.50
2023-01-18T11:50:23.391Z,9.10
2023-01-18T11:53:08.960Z,8.70
2023-01-18T11:55:38.336Z,8.50
2023-01-18T11:58:19.304Z,7.70
2023-01-18T12:00:51.504Z,7.40
2023-01-18T12:03:24.809Z,7.40
2023-01-18T12:06:04.089Z,7.60
2023-01-18T12:08:45.052Z,7.50
2023-01-18T12:11:14.966Z,7.40
2023-01-18T12:13:51.164Z,7.40
2023-01-18T12:16:18.234Z,7.30
2023-01-18T12:18:51.217Z,7.30
2023-01-18T12:21:18.976Z,7.20
2023-01-18T12:23:51.871Z,7.10
2023-01-18T12:26:28.689Z,6.90
2023-01-18T12:29:14.050Z,6.90
2023-01-18T12:31:47.113Z,6.80
2023-01-18T12:34:15.835Z,6.70
2023-01-18T12:36:51.850Z,6.70
2023-01-18T12:39:30.966Z,6.70
2023-01-18T12:42:04.462Z,6.60
2023-01-18T12:44:45.842Z,6.50
2023-01-18T12:47:19.007Z,6.60
2023-01-18T12:49:47.554Z,6.80
2023-01-18T12:52:19.328Z,6.90
2023-01-18T12:54:48.950Z,7.00
2023-01-18T12:57:17.239Z,7.00
2023-01-18T13:00:02.710Z,7.00
2023-01-18T13:02:42.937Z,6.80
2023-01-18T13:05:27.261Z,6.70
2023-01-18T13:08:01.694Z,6.70
2023-01-18T13:10:29.383Z,6.60
2023-01-18T13:12:58.823Z,6.60
2023-01-18T13:15:34.091Z,6.70
2023-01-18T13:18:04.052Z,6.70
2023-01-18T13:20:42.486Z,6.50
2023-01-18T13:23:17.812Z,6.40
2023-01-18T13:26:05.110Z,6.40
2023-01-18T13:28:36.860Z,6.40
2023-01-18T13:31:18.316Z,6.50
2023-01-18T13:33:54.624Z,6.50
2023-01-18T13:36:28.668Z,6.40
2023-01-18T13:39:15.514Z,6.40
2023-01-18T13:42:11.489Z,6.40
2023-01-18T13:44:47.672Z,6.40
2023-01-18T13:47:49.379Z,6.30
2023-01-18T13:50:46.734Z,6.30
2023-01-18T13:53:17.224Z,6.30
2023-01-18T13:55:50.575Z,6.20
2023-01-18T13:58:25.285Z,6.20
2023-01-18T14:00:59.269Z,6.20
2023-01-18T14:03:52.679Z,6.20
2023-01-18T14:06:28.636Z,6.20
2023-01-18T14:09:04.124Z,6.20
2023-01-18T14:11:36.891Z,6.10
2023-01-18T14:14:18.937Z,6.10
2023-01-18T14:17:08.467Z,6.00
2023-01-18T14:20:03.008Z,6.00
2023-01-18T14:23:05.708Z,5.90
2023-01-18T14:25:40.465Z,5.80
2023-01-18T14:28:17.402Z,5.90
2023-01-18T14:30:52.176Z,6.00
2023-01-18T14:33:32.722Z,6.00
2023-01-18T14:36:01.206Z,6.00
2023-01-18T14:38:39.952Z,6.10
2023-01-18T14:41:21.215Z,6.00
2023-01-18T14:43:55.332Z,6.00
2023-01-18T14:46:31.083Z,6.00
2023-01-18T14:48:59.290Z,6.00
2023-01-18T14:51:29.964Z,6.00
2023-01-18T14:54:00.789Z,6.00
2023-01-18T14:56:40.308Z,6.00
2023-01-18T14:59:20.423Z,6.00
2023-01-18T15:02:00.475Z,6.00
2023-01-18T15:04:40.504Z,6.00
2023-01-18T15:07:14.047Z,6.00
2023-01-18T15:09:47.586Z,6.00
2023-01-18T15:12:21.545Z,5.90
2023-01-18T15:14:54.571Z,5.90
2023-01-18T15:17:25.609Z,5.90
2023-01-18T15:20:03.384Z,5.90
2023-01-18T15:22:36.546Z,5.90
2023-01-18T15:25:07.336Z,5.90
2023-01-18T15:27:49.413Z,5.90
2023-01-18T15:30:20.365Z,5.90
2023-01-18T15:33:00.200Z,5.80
2023-01-18T15:35:35.094Z,5.90
2023-01-18T15:38:20.803Z,5.90
2023-01-18T15:41:11.183Z,5.90
2023-01-18T15:43:51.150Z,5.90
2023-01-18T15:46:20.574Z,5.80
2023-01-18T15:48:54.828Z,5.80
2023-01-18T15:51:47.188Z,5.80
2023-01-18T15:54:27.497Z,5.70
2023-01-18T15:57:08.573Z,5.60
2023-01-18T15:59:41.095Z,5.70
2023-01-18T16:02:08.708Z,5.70
2023-01-18T16:04:36.141Z,5.60
2023-01-18T16:07:23.642Z,5.60
2023-01-18T16:10:08.977Z,5.60
2023-01-18T16:12:40.692Z,5.40
2023-01-18T16:15:25.953Z,5.40
2023-01-18T16:18:01.688Z,5.40
2023-01-18T16:20:34.367Z,5.40
2023-01-18T16:23:10.295Z,5.40
2023-01-18T16:25:37.894Z,5.40
2023-01-18T16:28:08.501Z,5.40
2023-01-18T16:30:47.566Z,5.30
2023-01-18T16:33:24.217Z,5.40
2023-01-18T16:35:56.265Z,5.30
2023-01-18T16:38:34.355Z,5.20
2023-01-18T16:41:12.367Z,5.10
2023-01-18T16:43:47.041Z,5.10
2023-01-18T16:46:17.501Z,5.20
2023-01-18T16:49:00.463Z,5.30
2023-01-18T16:51:28.941Z,5.30
2023-01-18T16:54:03.757Z,5.30
2023-01-18T16:56:34.391Z,5.30
2023-01-18T16:59:06.305Z,5.30
2023-01-18T17:02:01.360Z,5.30
2023-01-18T17:04:40.276Z,5.30
2023-01-18T17:07:13.604Z,5.30
2023-01-18T17:09:49.889Z,5.30
2023-01-18T17:12:25.806Z,5.20
2023-01-18T17:14:55.908Z,5.10
2023-01-18T17:17:35.133Z,5.10
2023-01-18T17:20:19.796Z,5.00
2023-01-18T17:22:58.706Z,5.00
2023-01-18T17:25:26.843Z,5.10
2023-01-18T17:28:04.512Z,5.10
2023-01-18T17:30:39.730Z,5.10
2023-01-18T17:33:16.895Z,5.00
2023-01-18T17:35:47.247Z,4.90
2023-01-18T17:38:24.291Z,4.90
2023-01-18T17:40:57.332Z,4.90
2023-01-18T17:43:34.490Z,4.90
2023-01-18T17:46:03.203Z,5.00
2023-01-18T17:48:36.147Z,4.90
2023-01-18T17:51:16.044Z,4.90
2023-01-18T17:53:56.859Z,4.80
2023-01-18T17:56:45.732Z,4.80
2023-01-18T17:59:18.788Z,4.80
2023-01-18T18:01:56.601Z,4.80
2023-01-18T18:04:38.149Z,4.70
2023-01-18T18:07:10.773Z,4.60
2023-01-18T18:09:47.816Z,4.60
2023-01-18T18:12:21.306Z,4.50
2023-01-18T18:15:20.014Z,4.50
2023-01-18T18:18:12.350Z,4.50
2023-01-18T18:20:47.511Z,4.50
2023-01-18T18:23:16.498Z,4.50
2023-01-18T18:25:53.361Z,4.50
2023-01-18T18:28:38.875Z,4.40
2023-01-18T18:31:22.528Z,4.40
2023-01-18T18:33:57.826Z,4.30
2023-01-18T18:36:37.580Z,4.40
2023-01-18T18:39:10.360Z,4.40
2023-01-18T18:41:48.026Z,4.40
2023-01-18T18:44:21.682Z,4.40
2023-01-18T18:46:55.892Z,4.40
2023-01-18T18:49:27.175Z,4.40
2023-01-18T18:52:10.043Z,4.40
2023-01-18T18:54:41.861Z,4.40
2023-01-18T18:57:13.111Z,4.30
2023-01-18T18:59:42.823Z,4.20
2023-01-18T19:02:15.299Z,4.10
2023-01-18T19:04:48.147Z,4.10
2023-01-18T19:07:18.237Z,4.20
2023-01-18T19:09:57.172Z,4.20
2023-01-18T19:12:28.951Z,4.20
2023-01-18T19:15:00.293Z,4.20
2023-01-18T19:17:34.594Z,4.20
2023-01-18T19:20:07.516Z,4.20
2023-01-18T19:22:41.752Z,4.20
2023-01-18T19:25:16.802Z,4.20
2023-01-18T19:27:51.655Z,4.20
2023-01-18T19:30:23.911Z,4.10
2023-01-18T19:32:56.052Z,4.10
2023-01-18T19:35:35.336Z,4.00
2023-01-18T19:38:11.315Z,4.10
2023-01-18T19:40:46.330Z,4.10
2023-01-18T19:43:19.832Z,4.10
2023-01-18T19:45:50.148Z,4.10
2023-01-18T19:48:32.036Z,4.00
2023-01-18T19:51:20.821Z,4.00
2023-01-18T19:53:56.437Z,3.90
2023-01-18T19:56:39.356Z,3.90
2023-01-18T19:59:25.429Z,3.90
2023-01-18T20:01:59.601Z,3.90
2023-01-18T20:04:44.009Z,4.00
2023-01-18T20:07:17.335Z,4.00
2023-01-18T20:09:48.787Z,4.00
2023-01-18T20:12:24.636Z,4.00
2023-01-18T20:14:53.109Z,4.00
2023-01-18T20:17:28.249Z,3.90
2023-01-18T20:20:03.458Z,3.90
2023-01-18T20:22:37.497Z,3.90
2023-01-18T20:25:14.683Z,3.80
2023-01-18T20:27:53.738Z,3.80
2023-01-18T20:30:28.035Z,3.80
2023-01-18T20:32:59.797Z,3.80
2023-01-18T20:35:33.390Z,3.80
2023-01-18T20:38:10.499Z,3.80
2023-01-18T20:40:39.500Z,3.80
2023-01-18T20:43:11.122Z,3.80
2023-01-18T20:45:51.171Z,3.80
2023-01-18T20:48:21.223Z,3.70
2023-01-18T20:50:49.466Z,3.80
2023-01-18T20:53:22.232Z,3.80
2023-01-18T20:55:50.221Z,3.80
2023-01-18T20:58:17.623Z,3.80
2023-01-18T21:00:45.336Z,3.80
2023-01-18T21:03:18.284Z,3.80
2023-01-18T21:05:45.910Z,3.80
2023-01-18T21:08:13.056Z,3.70
2023-01-18T21:10:41.410Z,3.80
2023-01-18T21:13:09.362Z,3.80
2023-01-18T21:15:37.214Z,3.80
2023-01-18T21:18:04.966Z,3.80
2023-01-18T21:20:32.347Z,3.80
2023-01-18T21:22:59.691Z,3.80
2023-01-18T21:25:27.286Z,3.70
2023-01-18T21:27:54.541Z,3.70
2023-01-18T21:30:21.476Z,3.70
2023-01-18T21:32:48.580Z,3.70
2023-01-18T21:35:15.835Z,3.80
2023-01-18T21:37:42.809Z,3.80
2023-01-18T21:40:10.034Z,3.80
2023-01-18T21:42:55.599Z,3.80
2023-01-18T21:45:41.022Z,3.80
2023-01-18T21:48:08.831Z,3.80
2023-01-18T21:50:57.473Z,3.80
2023-01-18T21:53:43.033Z,3.80
2023-01-18T21:56:10.023Z,3.80
2023-01-18T21:58:55.328Z,3.70
2023-01-18T22:01:23.701Z,3.70
2023-01-18T22:04:09.938Z,3.70
2023-01-18T22:06:37.447Z,3.70
2023-01-18T22:09:04.472Z,3.70
2023-01-18T22:11:31.455Z,3.60
2023-01-18T22:13:58.650Z,3.70
2023-01-18T22:16:30.251Z,3.70
2023-01-18T22:18:58.299Z,3.70
2023-01-18T22:21:25.531Z,3.70
2023-01-18T22:23:52.834Z,3.80
2023-01-18T22:26:20.410Z,3.80
2023-01-18T22:28:47.579Z,3.80
2023-01-18T22:31:14.703Z,3.70
2023-01-18T22:33:42.271Z,3.70
2023-01-18T22:36:09.734Z,3.70
2023-01-18T22:38:37.921Z,3.70
2023-01-18T22:41:05.978Z,3.70
2023-01-18T22:43:33.547Z,3.70
2023-01-18T22:46:00.662Z,3.70
2023-01-18T22:48:27.657Z,3.70
2023-01-18T22:50:55.060Z,3.80
2023-01-18T22:53:22.665Z,3.70
2023-01-18T22:55:49.696Z,3.70
2023-01-18T22:58:17.242Z,3.60
2023-01-18T23:00:48.667Z,3.70
2023-01-18T23:03:17.366Z,3.70
2023-01-18T23:05:52.796Z,3.70
2023-01-18T23:08:19.717Z,3.60
2023-01-18T23:10:46.578Z,3.70
2023-01-18T23:13:13.431Z,3.70
2023-01-18T23:16:02.135Z,3.70
2023-01-18T23:18:29.042Z,3.70
2023-01-18T23:20:56.941Z,3.70
2023-01-18T23:23:23.850Z,3.80
2023-01-18T23:25:57.582Z,3.80
2023-01-18T23:28:27.566Z,3.80
2023-01-18T23:30:54.731Z,3.80
2023-01-18T23:33:22.005Z,3.80
2023-01-18T23:35:48.953Z,3.80
2023-01-18T23:38:15.931Z,3.80
2023-01-18T23:41:01.684Z,3.80
2023-01-18T23:43:46.943Z,3.90
2023-01-18T23:46:32.518Z,3.90
2023-01-18T23:49:18.168Z,3.90
2023-01-18T23:52:03.628Z,3.90
2023-01-18T23:54:30.473Z,4.00
2023-01-18T23:56:57.377Z,4.00
2023-01-18T23:59:24.294Z,3.90
